Time;durP1;ratioP1;P1;durP2;ratioP2;P2;SDS_P1;SDS_P2;PMS_P1;PMS_P2;Temp;Humidity;BMP_temperature;BMP_pressure;BME280_temperature;BME280_humidity;BME280_pressure;Samples;Min_cycle;Max_cycle;Signal;HPM_P1;HPM_P2
2023/07/24 00:00:03;;;;;;;2.83;1.02;;;;;;;21.12;70.20;98730.06;341497;28;5393;-63
2023/07/24 00:00:15;;;;;;;2.72;1.13;;;;;;;21.12;69.96;98735.34;333922;28;18386;-64
2023/07/24 00:00:27;;;;;;;2.03;1.30;;;;;;;21.11;70.04;98733.69;341761;28;4477;-63
2023/07/24 00:00:40;;;;;;;1.83;1.20;;;;;;;21.11;70.50;98731.06;334471;28;18377;-63
2023/07/24 00:00:52;;;;;;;1.92;1.17;;;;;;;21.12;70.34;98730.06;341761;28;4468;-64
2023/07/24 00:01:04;;;;;;;2.45;1.25;;;;;;;21.12;70.27;98730.06;339193;28;17283;-63
2023/07/24 00:01:17;;;;;;;2.53;1.42;;;;;;;21.12;70.14;98735.34;341339;28;5275;-64
2023/07/24 00:01:29;;;;;;;2.15;1.30;;;;;;;21.13;70.32;98737.03;337635;28;17705;-64
2023/07/24 00:01:42;;;;;;;1.50;1.15;;;;;;;21.12;70.26;98727.41;340891;28;5208;-63
2023/07/24 00:01:54;;;;;;;1.85;1.25;;;;;;;21.10;70.40;98726.72;338621;28;12926;-64
2023/07/24 00:02:06;;;;;;;1.90;1.30;;;;;;;21.11;70.11;98733.69;341458;28;5508;-63
2023/07/24 00:02:18;;;;;;;1.65;1.33;;;;;;;21.12;70.50;98723.94;340664;28;5131;-63
2023/07/24 00:02:30;;;;;;;2.05;1.30;;;;;;;21.14;70.49;98725.47;337221;28;21067;-63
2023/07/24 00:02:42;;;;;;;2.40;1.33;;;;;;;21.14;70.21;98728.13;341515;28;4980;-63
2023/07/24 00:02:55;;;;;;;2.65;1.30;;;;;;;21.15;70.25;98727.16;341258;28;18100;-64
2023/07/24 00:03:08;;;;;;;2.92;1.40;;;;;;;21.17;70.15;98728.81;339106;28;18024;-63
2023/07/24 00:03:20;;;;;;;3.05;1.50;;;;;;;21.14;70.99;98728.13;336211;28;5487;-63
2023/07/24 00:03:32;;;;;;;2.63;1.20;;;;;;;21.15;71.26;98724.50;341729;28;4473;-63
2023/07/24 00:03:45;;;;;;;2.47;1.20;;;;;;;21.12;71.85;98724.78;341518;28;5344;-63
2023/07/24 00:03:58;;;;;;;2.40;1.20;;;;;;;21.12;72.61;98719.50;339109;28;18178;-64
2023/07/24 00:04:10;;;;;;;1.95;1.20;;;;;;;21.12;71.91;98724.78;339253;28;10812;-64
2023/07/24 00:04:22;;;;;;;2.17;1.20;;;;;;;21.13;72.56;98721.19;340151;28;5309;-63
2023/07/24 00:04:34;;;;;;;2.10;1.27;;;;;;;21.14;72.60;98722.81;336054;28;5242;-63
2023/07/24 00:04:47;;;;;;;2.08;1.38;;;;;;;21.14;73.24;98725.47;338931;28;18695;-64
2023/07/24 00:04:59;;;;;;;2.15;1.45;;;;;;;21.12;74.61;98724.78;341625;28;4634;-63
2023/07/24 00:05:11;;;;;;;1.77;1.40;;;;;;;21.10;74.55;98716.16;339269;28;18779;-63
2023/07/24 00:05:23;;;;;;;1.80;1.35;;;;;;;21.11;74.95;98717.84;341390;28;5213;-63
2023/07/24 00:05:35;;;;;;;1.85;1.17;;;;;;;21.11;75.01;98717.00;338253;28;11974;-64
2023/07/24 00:05:47;;;;;;;2.30;1.20;;;;;;;21.10;75.32;98716.16;340368;28;5544;-63
2023/07/24 00:05:59;;;;;;;2.15;1.10;;;;;;;21.10;75.70;98710.06;340563;28;4578;-63
2023/07/24 00:06:11;;;;;;;1.92;1.17;;;;;;;21.09;75.46;98709.22;333038;28;18203;-63
2023/07/24 00:06:23;;;;;;;2.05;1.20;;;;;;;21.12;74.65;98713.38;340687;28;4646;-63
2023/07/24 00:06:35;;;;;;;1.75;1.17;;;;;;;21.11;75.11;98717.00;341582;28;8818;-63
2023/07/24 00:06:47;;;;;;;2.10;1.17;;;;;;;21.11;75.10;98714.38;334743;28;19126;-63
2023/07/24 00:07:00;;;;;;;2.13;1.00;;;;;;;21.10;74.70;98710.06;341739;28;5413;-64
2023/07/24 00:07:12;;;;;;;2.13;1.02;;;;;;;21.11;74.76;98715.19;338890;28;17899;-64
2023/07/24 00:07:25;;;;;;;1.95;1.25;;;;;;;21.12;75.03;98716.84;340436;28;4818;-63
2023/07/24 00:07:37;;;;;;;1.85;1.30;;;;;;;21.09;75.39;98714.50;338106;28;4793;-63
2023/07/24 00:07:48;;;;;;;1.70;1.20;;;;;;;21.09;75.58;98703.94;340464;28;5553;-63
2023/07/24 00:08:01;;;;;;;1.70;1.20;;;;;;;21.06;76.50;98714.78;338970;28;5096;-64
2023/07/24 00:08:13;;;;;;;2.20;1.17;;;;;;;21.06;76.28;98714.78;341658;28;5276;-63
2023/07/24 00:08:26;;;;;;;2.42;1.30;;;;;;;21.04;76.28;98706.16;340121;28;5355;-64
2023/07/24 00:08:38;;;;;;;1.98;1.40;;;;;;;21.05;76.58;98709.66;340059;28;17136;-63
2023/07/24 00:08:50;;;;;;;1.85;1.20;;;;;;;21.07;76.65;98710.34;340866;28;5395;-63
2023/07/24 00:09:02;;;;;;;1.80;1.25;;;;;;;21.02;77.25;98708.09;337612;28;18165;-64
2023/07/24 00:09:14;;;;;;;2.42;1.17;;;;;;;21.02;77.69;98709.91;339283;28;18304;-63
2023/07/24 00:09:26;;;;;;;2.50;1.20;;;;;;;21.00;77.42;98710.03;335296;28;6099;-64
2023/07/24 00:09:38;;;;;;;2.35;1.20;;;;;;;21.01;77.28;98709.09;338884;28;17359;-64
2023/07/24 00:09:50;;;;;;;2.77;1.40;;;;;;;21.01;76.65;98711.72;340001;28;4728;-63
2023/07/24 00:10:03;;;;;;;2.57;1.30;;;;;;;21.01;76.80;98706.44;337553;28;5538;-64
2023/07/24 00:10:15;;;;;;;2.78;1.27;;;;;;;21.00;77.55;98707.41;341023;28;5232;-63
2023/07/24 00:10:27;;;;;;;3.15;1.20;;;;;;;21.03;76.71;98709.78;340146;28;18079;-63
2023/07/24 00:10:39;;;;;;;2.72;1.20;;;;;;;21.04;77.03;98707.97;337922;28;17869;-64
2023/07/24 00:10:51;;;;;;;2.38;1.20;;;;;;;21.03;76.62;98709.78;341422;28;4506;-64
2023/07/24 00:11:07;;;;;;;2.40;1.42;;;;;;;21.02;76.90;98705.47;339131;28;19199;-64
2023/07/24 00:11:19;;;;;;;2.25;1.27;;;;;;;21.04;76.43;98708.78;339066;28;18247;-64
2023/07/24 00:11:31;;;;;;;1.95;1.30;;;;;;;21.04;76.07;98711.44;341186;28;4647;-64
2023/07/24 00:11:43;;;;;;;2.53;1.48;;;;;;;21.04;76.44;98708.78;338939;28;10305;-64
2023/07/24 00:11:55;;;;;;;2.95;1.40;;;;;;;21.04;76.07;98711.44;341208;28;4604;-63
2023/07/24 00:12:07;;;;;;;2.92;1.30;;;;;;;21.05;76.38;98705.19;337099;28;4665;-64
2023/07/24 00:12:19;;;;;;;2.25;1.17;;;;;;;21.07;76.57;98705.88;339035;28;18131;-63
2023/07/24 00:12:31;;;;;;;2.13;1.20;;;;;;;21.10;76.21;98707.41;341153;28;4831;-64
2023/07/24 00:12:44;;;;;;;2.28;1.20;;;;;;;21.11;75.75;98702.00;338274;28;18230;-63
2023/07/24 00:12:55;;;;;;;2.20;1.25;;;;;;;21.12;75.67;98701.00;341204;28;5336;-65
2023/07/24 00:13:07;;;;;;;2.28;1.30;;;;;;;21.13;75.17;98702.69;338770;28;9985;-63
2023/07/24 00:13:20;;;;;;;2.42;1.30;;;;;;;21.13;75.41;98699.22;341031;28;4626;-63
2023/07/24 00:13:32;;;;;;;2.13;1.10;;;;;;;21.12;75.27;98698.34;341745;28;4682;-63
2023/07/24 00:13:44;;;;;;;2.40;1.23;;;;;;;21.11;75.27;98701.16;338258;28;5415;-64
2023/07/24 00:13:56;;;;;;;2.50;1.30;;;;;;;21.08;75.31;98707.53;341372;28;4544;-63
2023/07/24 00:14:08;;;;;;;2.40;1.20;;;;;;;21.07;75.23;98700.59;339192;28;4726;-64
2023/07/24 00:14:20;;;;;;;2.17;1.17;;;;;;;21.06;75.09;98701.56;341173;28;4662;-63
2023/07/24 00:14:32;;;;;;;2.83;1.30;;;;;;;21.06;75.38;98704.19;341258;28;5335;-64
2023/07/24 00:14:44;;;;;;;2.20;1.15;;;;;;;21.00;76.26;98698.66;338866;28;5143;-64
2023/07/24 00:14:56;;;;;;;2.10;1.23;;;;;;;20.95;76.55;98705.19;336223;28;4948;-64
2023/07/24 00:15:09;;;;;;;2.78;1.25;;;;;;;20.91;76.72;98700.34;341579;28;4932;-63
2023/07/24 00:15:21;;;;;;;2.85;1.30;;;;;;;20.91;76.32;98695.06;338500;28;17821;-63
2023/07/24 00:15:33;;;;;;;2.33;1.30;;;;;;;20.90;76.28;98699.47;340219;28;4784;-63
2023/07/24 00:15:45;;;;;;;1.80;1.23;;;;;;;20.91;75.77;98700.34;337696;28;18193;-63
2023/07/24 00:15:57;;;;;;;3.00;1.38;;;;;;;20.91;75.60;98700.34;339934;28;4567;-63
2023/07/24 00:16:10;;;;;;;3.22;1.60;;;;;;;20.88;75.71;98701.41;337276;28;18949;-64
2023/07/24 00:16:22;;;;;;;2.92;1.70;;;;;;;20.88;75.96;98695.31;340346;28;5024;-63
2023/07/24 00:16:34;;;;;;;1.95;1.42;;;;;;;20.85;77.01;98708.81;336696;28;4654;-63
2023/07/24 00:16:46;;;;;;;1.92;1.20;;;;;;;20.87;76.28;98705.06;337901;28;19162;-63
2023/07/24 00:16:58;;;;;;;1.95;1.10;;;;;;;20.89;76.22;98707.56;341217;28;5000;-63
2023/07/24 00:17:10;;;;;;;2.35;1.17;;;;;;;20.89;76.01;98702.28;339290;28;11905;-64
2023/07/24 00:17:22;;;;;;;1.73;1.15;;;;;;;20.88;75.63;98690.84;341127;28;5592;-63
2023/07/24 00:17:34;;;;;;;2.03;1.33;;;;;;;20.89;75.49;98707.56;341603;28;4732;-63
2023/07/24 00:17:46;;;;;;;1.80;1.27;;;;;;;20.88;75.46;98705.88;338633;28;18320;-64
2023/07/24 00:17:58;;;;;;;1.55;1.20;;;;;;;20.88;75.38;98701.41;341585;28;4500;-63
2023/07/24 00:18:10;;;;;;;1.80;1.15;;;;;;;20.88;75.94;98692.66;336964;28;4602;-63
2023/07/24 00:18:22;;;;;;;2.03;1.27;;;;;;;20.89;75.60;98707.56;338338;28;19392;-63
2023/07/24 00:18:34;;;;;;;2.00;1.25;;;;;;;20.90;75.90;98709.22;340687;28;4475;-63
2023/07/24 00:18:46;;;;;;;2.10;1.30;;;;;;;20.89;75.63;98697.00;338783;28;18293;-64
2023/07/24 00:18:58;;;;;;;2.45;1.40;;;;;;;20.90;75.99;98711.84;341474;28;4544;-64
2023/07/24 00:19:10;;;;;;;2.10;1.30;;;;;;;20.81;75.95;98705.59;339320;28;11369;-63
2023/07/24 00:19:22;;;;;;;2.35;1.10;;;;;;;20.80;75.99;98698.66;336828;28;17759;-63
2023/07/24 00:19:35;;;;;;;2.75;1.23;;;;;;;20.77;76.04;98706.03;339759;28;4810;-63
2023/07/24 00:19:47;;;;;;;2.75;1.40;;;;;;;20.71;75.87;98702.97;331505;28;11935;-64
2023/07/24 00:19:59;;;;;;;1.70;1.30;;;;;;;20.69;76.23;98714.63;339213;28;4736;-63
2023/07/24 00:20:11;;;;;;;1.60;1.23;;;;;;;20.66;76.52;98699.88;339467;28;5184;-64
2023/07/24 00:20:24;;;;;;;2.00;1.20;;;;;;;20.67;76.67;98709.47;337398;28;17451;-63
2023/07/24 00:20:36;;;;;;;1.80;1.10;;;;;;;20.68;76.90;98700.56;339439;28;5029;-63
2023/07/24 00:20:48;;;;;;;1.67;1.00;;;;;;;20.69;77.09;98702.25;337648;28;18289;-63
2023/07/24 00:21:00;;;;;;;1.55;1.08;;;;;;;20.66;76.88;98702.53;340068;28;4782;-63
2023/07/24 00:21:13;;;;;;;2.22;1.10;;;;;;;20.69;76.69;98699.63;340538;28;5477;-63
2023/07/24 00:21:25;;;;;;;2.67;1.30;;;;;;;20.71;76.53;98702.13;334129;28;18183;-63
2023/07/24 00:21:37;;;;;;;2.10;1.40;;;;;;;20.72;76.79;98701.97;341006;28;5214;-63
2023/07/24 00:21:49;;;;;;;1.80;1.40;;;;;;;20.72;76.29;98696.69;338983;28;18308;-63
2023/07/24 00:22:01;;;;;;;2.20;1.30;;;;;;;20.73;76.28;98698.38;341702;28;5336;-63
2023/07/24 00:22:13;;;;;;;2.15;1.17;;;;;;;20.74;76.40;98694.78;339027;28;18076;-63
2023/07/24 00:22:25;;;;;;;1.90;1.25;;;;;;;20.76;76.00;98697.25;341524;28;4979;-64
2023/07/24 00:22:37;;;;;;;2.97;1.38;;;;;;;20.77;76.29;98698.13;341793;28;5618;-63
2023/07/24 00:22:49;;;;;;;2.95;1.20;;;;;;;20.77;76.45;98698.13;338526;28;18269;-63
2023/07/24 00:23:01;;;;;;;1.90;1.20;;;;;;;20.75;76.95;98696.44;337188;28;5537;-64
2023/07/24 00:23:13;;;;;;;2.03;1.42;;;;;;;20.78;76.38;98689.19;341320;28;4667;-64
2023/07/24 00:23:25;;;;;;;2.45;1.50;;;;;;;20.78;76.59;98687.38;338023;28;18183;-64
2023/07/24 00:23:37;;;;;;;2.40;1.42;;;;;;;20.77;76.89;98692.81;339827;28;5234;-64
2023/07/24 00:23:49;;;;;;;2.70;1.30;;;;;;;20.79;76.63;98696.16;337527;28;18819;-63
2023/07/24 00:24:01;;;;;;;2.17;1.20;;;;;;;20.77;76.49;98692.81;339945;28;5236;-63
2023/07/24 00:24:13;;;;;;;2.20;1.20;;;;;;;20.74;76.51;98694.78;339880;28;5390;-63
2023/07/24 00:24:25;;;;;;;2.05;1.23;;;;;;;20.74;76.75;98689.50;336688;28;18145;-64
2023/07/24 00:24:37;;;;;;;2.28;1.40;;;;;;;20.77;76.84;98688.38;340242;28;5280;-63
2023/07/24 00:24:49;;;;;;;2.35;1.40;;;;;;;20.78;76.44;98694.47;337342;28;19307;-63
2023/07/24 00:25:01;;;;;;;1.83;1.17;;;;;;;20.79;75.94;98696.16;340193;28;4704;-64
2023/07/24 00:25:13;;;;;;;1.88;1.17;;;;;;;20.81;75.63;98688.94;337243;28;12621;-64
2023/07/24 00:25:25;;;;;;;2.00;1.20;;;;;;;20.83;75.44;98687.00;340400;28;5219;-63
2023/07/24 00:25:37;;;;;;;2.20;1.20;;;;;;;20.82;75.07;98685.31;340373;28;4782;-63
2023/07/24 00:25:49;;;;;;;2.13;1.17;;;;;;;20.83;75.12;98684.34;340273;28;9392;-64
2023/07/24 00:26:01;;;;;;;2.00;1.10;;;;;;;20.84;75.19;98688.63;338822;28;19135;-64
2023/07/24 00:26:13;;;;;;;2.20;1.15;;;;;;;20.84;75.42;98689.47;341519;28;4663;-64
2023/07/24 00:26:25;;;;;;;2.42;1.20;;;;;;;20.83;75.96;98687.00;336800;28;18030;-64
2023/07/24 00:26:38;;;;;;;1.83;1.20;;;;;;;20.81;75.79;98684.47;340409;28;4782;-64
2023/07/24 00:26:50;;;;;;;1.45;1.20;;;;;;;20.82;76.13;98682.66;337479;28;12394;-64
2023/07/24 00:27:02;;;;;;;2.20;1.30;;;;;;;20.81;76.07;98683.66;340181;28;4571;-63
2023/07/24 00:27:14;;;;;;;3.20;1.42;;;;;;;20.81;75.94;98681.00;340586;28;12816;-64
2023/07/24 00:27:27;;;;;;;3.50;1.60;;;;;;;20.78;76.06;98689.19;328974;28;4656;-63
2023/07/24 00:27:39;;;;;;;2.58;1.50;;;;;;;20.77;76.47;98687.53;338046;28;16955;-64
2023/07/24 00:27:51;;;;;;;1.70;1.30;;;;;;;20.77;76.33;98688.38;338841;28;18010;-64
2023/07/24 00:28:03;;;;;;;1.67;1.23;;;;;;;20.79;76.70;98685.59;341243;28;4569;-64
2023/07/24 00:28:15;;;;;;;2.40;1.40;;;;;;;20.79;76.51;98688.25;340646;28;4645;-63
2023/07/24 00:28:27;;;;;;;2.33;1.30;;;;;;;20.80;76.43;98679.31;338115;28;18183;-63
2023/07/24 00:28:40;;;;;;;1.67;1.10;;;;;;;20.81;76.67;98683.66;340527;28;4586;-63
2023/07/24 00:28:51;;;;;;;3.08;1.23;;;;;;;20.82;76.74;98686.13;337907;28;18104;-64
2023/07/24 00:29:03;;;;;;;4.55;1.40;;;;;;;20.83;76.69;98687.81;335313;28;5464;-64
2023/07/24 00:29:15;;;;;;;4.15;1.48;;;;;;;20.83;76.69;98687.00;340704;28;4564;-63
2023/07/24 00:29:27;;;;;;;3.17;1.20;;;;;;;20.82;76.64;98690.59;338416;28;4650;-63
2023/07/24 00:29:39;;;;;;;1.80;1.13;;;;;;;20.83;76.33;98681.72;340163;28;4563;-64
2023/07/24 00:29:51;;;;;;;2.10;1.10;;;;;;;20.84;76.29;98693.91;338825;28;5568;-64
2023/07/24 00:30:04;;;;;;;2.53;1.08;;;;;;;20.83;77.28;98687.00;339077;28;17362;-64
2023/07/24 00:30:16;;;;;;;3.00;1.20;;;;;;;20.83;77.11;98684.34;340641;28;5264;-63
2023/07/24 00:30:28;;;;;;;2.58;1.25;;;;;;;20.84;76.76;98688.63;338469;28;18818;-64
2023/07/24 00:30:40;;;;;;;1.67;1.20;;;;;;;20.84;76.48;98681.53;336895;28;4636;-64
2023/07/24 00:30:52;;;;;;;1.33;1.08;;;;;;;20.84;76.74;98686.81;340200;28;4617;-63
2023/07/24 00:31:04;;;;;;;1.58;1.17;;;;;;;20.88;76.79;98684.75;337423;28;19169;-63
2023/07/24 00:31:16;;;;;;;1.70;1.15;;;;;;;20.89;76.70;98691.72;341097;28;4530;-63
2023/07/24 00:31:28;;;;;;;2.28;1.30;;;;;;;20.87;76.88;98683.91;338226;28;18297;-64
2023/07/24 00:31:40;;;;;;;2.15;1.38;;;;;;;20.89;76.81;98686.44;341712;28;4489;-63
2023/07/24 00:31:52;;;;;;;2.13;1.30;;;;;;;20.88;76.57;98685.56;341130;28;4791;-63
2023/07/24 00:32:04;;;;;;;1.95;1.15;;;;;;;20.90;76.33;98688.09;337390;28;17964;-64
2023/07/24 00:32:16;;;;;;;2.58;1.27;;;;;;;20.91;76.51;98684.47;340740;28;4686;-63
2023/07/24 00:32:28;;;;;;;2.55;1.40;;;;;;;20.90;76.20;98683.63;338928;28;4716;-63
2023/07/24 00:32:40;;;;;;;1.77;1.40;;;;;;;20.88;76.39;98685.56;341423;28;4951;-63
2023/07/24 00:32:53;;;;;;;1.20;1.10;;;;;;;20.89;76.17;98684.63;338643;28;11580;-64
2023/07/24 00:33:05;;;;;;;1.08;0.98;;;;;;;20.88;76.24;98684.75;341507;28;4545;-64
2023/07/24 00:33:17;;;;;;;1.55;1.02;;;;;;;20.88;75.98;98680.28;339263;28;5094;-63
2023/07/24 00:33:29;;;;;;;2.05;1.20;;;;;;;20.86;75.67;98684.06;337679;28;11560;-63
2023/07/24 00:33:41;;;;;;;1.83;1.33;;;;;;;20.83;75.84;98681.72;334871;28;5439;-63
2023/07/24 00:33:53;;;;;;;2.25;1.30;;;;;;;20.78;76.41;98684.75;339990;28;4921;-64
2023/07/24 00:34:05;;;;;;;1.90;1.30;;;;;;;20.80;76.15;98687.25;337359;28;18123;-63
2023/07/24 00:34:17;;;;;;;1.88;1.25;;;;;;;20.78;76.46;98678.63;340589;28;4479;-63
2023/07/24 00:34:29;;;;;;;1.52;1.10;;;;;;;20.77;76.43;98688.38;337584;28;11831;-64
2023/07/24 00:34:41;;;;;;;2.20;1.25;;;;;;;20.73;77.04;98684.34;339863;28;4477;-64
2023/07/24 00:34:53;;;;;;;2.63;1.40;;;;;;;20.72;77.14;98685.31;340024;28;4827;-63
2023/07/24 00:35:05;;;;;;;2.83;1.30;;;;;;;20.72;77.05;98682.66;337280;28;18392;-64
2023/07/24 00:35:17;;;;;;;2.22;1.20;;;;;;;20.75;76.47;98679.75;340200;28;4895;-64
2023/07/24 00:35:29;;;;;;;2.15;1.20;;;;;;;20.74;76.62;98684.22;338065;28;4931;-63
2023/07/24 00:35:41;;;;;;;1.83;1.25;;;;;;;20.74;77.07;98684.22;340945;28;4647;-63
2023/07/24 00:35:57;;;;;;;2.05;1.30;;;;;;;20.73;77.03;98679.88;339967;28;10485;-64
2023/07/24 00:36:09;;;;;;;2.47;1.27;;;;;;;20.74;76.95;98683.34;339699;28;19090;-64
2023/07/24 00:36:21;;;;;;;2.53;1.23;;;;;;;20.74;77.19;98686.84;341406;28;4617;-63
2023/07/24 00:36:33;;;;;;;1.88;1.15;;;;;;;20.74;77.48;98681.56;340485;28;5220;-64
2023/07/24 00:36:45;;;;;;;2.00;1.15;;;;;;;20.73;78.28;98686.97;338090;28;19335;-64
2023/07/24 00:36:57;;;;;;;2.03;1.20;;;;;;;20.72;78.58;98682.66;341525;28;5514;-64
2023/07/24 00:37:09;;;;;;;2.42;1.35;;;;;;;20.73;77.92;98685.16;341268;28;4696;-64
2023/07/24 00:37:21;;;;;;;2.20;1.30;;;;;;;20.74;77.58;98689.50;338493;28;18318;-64
2023/07/24 00:37:33;;;;;;;2.10;1.25;;;;;;;20.74;77.50;98684.22;341294;28;4657;-64
2023/07/24 00:37:45;;;;;;;2.08;1.17;;;;;;;20.77;77.29;98684.91;338344;28;18298;-64
2023/07/24 00:37:57;;;;;;;2.17;1.15;;;;;;;20.77;77.50;98687.53;341157;28;4488;-64
2023/07/24 00:38:09;;;;;;;2.00;1.02;;;;;;;20.79;77.18;98680.31;341708;28;5536;-63
2023/07/24 00:38:21;;;;;;;1.80;1.05;;;;;;;20.79;76.90;98690.88;338694;28;18314;-64
2023/07/24 00:38:33;;;;;;;2.17;1.20;;;;;;;20.77;76.90;98687.53;340276;28;5258;-64
2023/07/24 00:38:45;;;;;;;2.08;1.15;;;;;;;20.74;76.76;98681.56;337984;28;17237;-64
2023/07/24 00:38:57;;;;;;;1.80;1.10;;;;;;;20.70;77.10;98682.78;341022;28;5719;-64
2023/07/24 00:39:09;;;;;;;1.95;1.20;;;;;;;20.69;76.66;98681.13;341320;28;4669;-63
2023/07/24 00:39:21;;;;;;;2.28;1.48;;;;;;;20.69;76.63;98683.78;338815;28;16423;-64
2023/07/24 00:39:33;;;;;;;2.67;1.52;;;;;;;20.68;76.53;98684.72;339878;28;4572;-64
2023/07/24 00:39:45;;;;;;;2.40;1.50;;;;;;;20.64;76.36;98688.63;340841;28;4771;-63
2023/07/24 00:39:57;;;;;;;1.77;1.35;;;;;;;20.59;77.06;98679.47;338504;28;18819;-64
2023/07/24 00:40:09;;;;;;;1.50;1.20;;;;;;;20.57;76.89;98682.22;341135;28;5528;-63
2023/07/24 00:40:21;;;;;;;1.40;1.00;;;;;;;20.56;77.11;98685.81;338562;28;17546;-64
2023/07/24 00:40:33;;;;;;;1.92;1.20;;;;;;;20.55;76.78;98684.16;341219;28;5260;-63
2023/07/24 00:40:45;;;;;;;2.67;1.25;;;;;;;20.56;76.77;98680.53;341693;28;4648;-63
2023/07/24 00:40:58;;;;;;;2.78;1.30;;;;;;;20.57;77.03;98684.84;338724;28;18200;-64
2023/07/24 00:41:10;;;;;;;3.05;1.40;;;;;;;20.56;77.14;98677.88;341275;28;5377;-63
2023/07/24 00:41:22;;;;;;;3.13;1.33;;;;;;;20.56;77.39;98680.53;337332;28;18052;-63
2023/07/24 00:41:34;;;;;;;3.03;1.20;;;;;;;20.55;77.70;98689.44;341262;28;5186;-64
2023/07/24 00:41:46;;;;;;;2.50;1.20;;;;;;;20.56;77.59;98680.53;337259;28;12127;-64
2023/07/24 00:41:58;;;;;;;2.20;1.20;;;;;;;20.56;77.95;98691.09;339907;28;4735;-63
2023/07/24 00:42:10;;;;;;;1.95;1.10;;;;;;;20.55;77.61;98679.69;341012;28;5583;-64
2023/07/24 00:42:22;;;;;;;1.67;1.05;;;;;;;20.55;77.78;98684.16;339013;28;10474;-64
2023/07/24 00:42:34;;;;;;;1.67;1.10;;;;;;;20.55;77.80;98681.50;337902;28;17264;-63
2023/07/24 00:42:48;;;;;;;1.48;1.23;;;;;;;20.54;77.60;98682.47;341247;28;5257;-63
2023/07/24 00:43:00;;;;;;;1.85;1.40;;;;;;;20.54;77.67;98685.09;338520;28;18066;-63
2023/07/24 00:43:12;;;;;;;2.00;1.48;;;;;;;20.53;77.24;98683.47;338885;28;9092;-63
2023/07/24 00:43:24;;;;;;;2.08;1.40;;;;;;;20.53;77.14;98683.47;340131;28;4560;-64
2023/07/24 00:43:36;;;;;;;1.83;1.25;;;;;;;20.52;77.13;98689.69;341178;28;6622;-64
2023/07/24 00:43:48;;;;;;;1.45;1.10;;;;;;;20.50;77.16;98684.56;334266;28;18354;-64
2023/07/24 00:44:00;;;;;;;1.48;1.10;;;;;;;20.51;77.10;98685.41;341372;28;4653;-63
2023/07/24 00:44:12;;;;;;;1.95;1.40;;;;;;;20.49;77.62;98687.34;339340;28;11796;-64
2023/07/24 00:44:24;;;;;;;2.33;1.50;;;;;;;20.48;77.56;98678.59;339697;28;4560;-63
2023/07/24 00:44:37;;;;;;;2.10;1.40;;;;;;;20.48;77.48;98683.00;341031;28;5269;-64
2023/07/24 00:44:49;;;;;;;1.85;1.35;;;;;;;20.46;78.22;98684.97;338325;28;17943;-64
2023/07/24 00:45:01;;;;;;;1.52;1.20;;;;;;;20.47;77.88;98687.47;341228;28;5243;-63
2023/07/24 00:45:16;;;;;;;1.52;1.08;;;;;;;20.47;78.02;98686.66;338193;28;17760;-63
2023/07/24 00:45:28;;;;;;;1.70;1.02;;;;;;;20.47;78.04;98687.47;336535;28;18128;-64
2023/07/24 00:45:40;;;;;;;2.40;1.23;;;;;;;20.48;78.08;98683.88;340019;28;5502;-63
2023/07/24 00:45:54;;;;;;;2.22;1.23;;;;;;;20.49;78.06;98695.25;340716;28;11419;-64
2023/07/24 00:46:06;;;;;;;2.33;1.40;;;;;;;20.50;78.48;98686.34;339150;28;16746;-64
2023/07/24 00:46:18;;;;;;;3.38;1.52;;;;;;;20.50;78.24;98686.34;338301;28;18105;-64
2023/07/24 00:46:32;;;;;;;3.25;1.63;;;;;;;20.50;78.58;98691.63;340280;28;5321;-64
2023/07/24 00:46:45;;;;;;;1.83;1.45;;;;;;;20.48;78.73;98688.28;338373;28;18067;-64
2023/07/24 00:46:57;;;;;;;2.00;1.42;;;;;;;20.45;79.40;98685.94;340263;28;9265;-64
2023/07/24 00:47:10;;;;;;;2.92;1.42;;;;;;;20.45;79.25;98684.13;339845;28;17549;-64
2023/07/24 00:47:22;;;;;;;3.00;1.33;;;;;;;20.42;79.98;98681.75;339961;28;5090;-64
2023/07/24 00:47:34;;;;;;;3.78;1.42;;;;;;;20.42;79.97;98688.84;337210;28;18551;-64
2023/07/24 00:47:47;;;;;;;2.97;1.40;;;;;;;20.41;79.70;98687.19;340321;28;4742;-64
2023/07/24 00:48:00;;;;;;;1.95;1.40;;;;;;;20.43;79.68;98687.88;337298;28;18270;-64
2023/07/24 00:48:12;;;;;;;2.67;1.35;;;;;;;20.42;79.87;98679.13;341466;28;4660;-64
2023/07/24 00:48:24;;;;;;;2.97;1.50;;;;;;;20.43;79.58;98687.88;336412;28;4961;-64
2023/07/24 00:48:37;;;;;;;2.55;1.50;;;;;;;20.42;79.80;98687.03;340704;28;4826;-63
2023/07/24 00:48:50;;;;;;;2.20;1.38;;;;;;;20.45;79.24;98691.22;337733;28;11946;-64
2023/07/24 00:49:04;;;;;;;2.15;1.30;;;;;;;20.46;79.18;98684.97;340829;28;5262;-63
2023/07/24 00:49:17;;;;;;;2.03;1.25;;;;;;;20.45;79.33;98683.31;339095;28;18183;-64
2023/07/24 00:49:29;;;;;;;2.65;1.20;;;;;;;20.44;79.22;98681.63;339211;28;16113;-64
2023/07/24 00:49:41;;;;;;;2.95;1.20;;;;;;;20.41;79.45;98676.63;336065;28;5378;-64
2023/07/24 00:49:55;;;;;;;2.92;1.40;;;;;;;20.42;79.28;98683.56;342653;28;4785;-64
2023/07/24 00:50:08;;;;;;;2.05;1.38;;;;;;;20.44;79.14;98685.09;339962;28;19005;-64
2023/07/24 00:50:21;;;;;;;1.63;1.20;;;;;;;20.43;79.19;98679.97;338770;28;18313;-64
2023/07/24 00:50:33;;;;;;;1.40;1.20;;;;;;;20.44;79.27;98686.91;342452;28;4763;-64
2023/07/24 00:50:45;;;;;;;1.40;1.08;;;;;;;20.45;79.34;98683.31;339788;28;19116;-64
2023/07/24 00:50:58;;;;;;;2.13;1.05;;;;;;;20.46;79.25;98679.69;342879;28;5172;-64
2023/07/24 00:51:10;;;;;;;2.10;1.20;;;;;;;20.47;79.35;98681.38;341126;28;10583;-64
2023/07/24 00:51:22;;;;;;;1.58;1.25;;;;;;;20.48;79.31;98688.28;340155;28;17170;-64
2023/07/24 00:51:34;;;;;;;1.73;1.17;;;;;;;20.48;78.96;98677.75;342256;28;5306;-64
2023/07/24 00:51:47;;;;;;;1.98;1.10;;;;;;;20.52;79.08;98684.41;338075;28;18226;-64
2023/07/24 00:51:59;;;;;;;2.40;1.20;;;;;;;20.50;79.16;98678.44;341137;28;5175;-64
2023/07/24 00:52:12;;;;;;;2.20;1.10;;;;;;;20.49;79.31;98679.41;338175;28;17842;-64
2023/07/24 00:52:24;;;;;;;2.10;1.10;;;;;;;20.47;79.00;98682.19;340186;28;4692;-64
2023/07/24 00:52:37;;;;;;;2.15;1.20;;;;;;;20.46;78.85;98679.69;338225;28;17913;-64
2023/07/24 00:52:49;;;;;;;2.17;1.20;;;;;;;20.47;78.78;98678.72;336550;28;4639;-64
2023/07/24 00:53:01;;;;;;;2.35;1.40;;;;;;;20.47;78.99;98681.38;338667;28;19260;-64
2023/07/24 00:53:16;;;;;;;2.15;1.35;;;;;;;20.49;78.73;98674.16;341128;28;4555;-64
2023/07/24 00:53:28;;;;;;;2.03;1.25;;;;;;;20.49;79.07;98679.41;336677;28;17786;-64
2023/07/24 00:53:40;;;;;;;2.40;1.40;;;;;;;20.49;78.90;98682.88;341322;28;4967;-64
2023/07/24 00:53:53;;;;;;;2.50;1.40;;;;;;;20.51;78.80;98678.31;338572;28;18316;-64
2023/07/24 00:54:07;;;;;;;2.50;1.08;;;;;;;20.49;78.72;98684.69;339737;28;12981;-64
2023/07/24 00:54:21;;;;;;;2.42;1.17;;;;;;;20.51;78.70;98680.13;338897;28;18210;-64
2023/07/24 00:54:34;;;;;;;1.75;1.15;;;;;;;20.51;78.56;98677.47;338470;28;17693;-64
2023/07/24 00:54:46;;;;;;;1.70;1.20;;;;;;;20.49;79.23;98679.41;338396;28;15614;-64
2023/07/24 00:54:59;;;;;;;1.67;1.20;;;;;;;20.52;79.15;98680.00;340515;28;4861;-64
2023/07/24 00:55:13;;;;;;;1.88;1.25;;;;;;;20.51;78.88;98677.47;338663;28;16433;-64
2023/07/24 00:55:25;;;;;;;1.73;1.20;;;;;;;20.52;79.02;98685.28;339884;28;4523;-64
2023/07/24 00:55:38;;;;;;;3.33;1.58;;;;;;;20.53;78.57;98680.81;338257;28;17913;-64
2023/07/24 00:55:50;;;;;;;3.15;1.60;;;;;;;20.53;78.33;98683.47;334748;28;4792;-64
2023/07/24 00:56:03;;;;;;;2.28;1.48;;;;;;;20.51;78.86;98688.03;337430;28;4702;-64
2023/07/24 00:56:15;;;;;;;1.85;1.30;;;;;;;20.50;78.70;98673.16;340586;28;5007;-64
2023/07/24 00:56:28;;;;;;;1.88;1.35;;;;;;;20.51;78.78;98682.75;337954;28;16220;-65
2023/07/24 00:56:41;;;;;;;2.03;1.60;;;;;;;20.50;79.03;98678.44;340688;28;5293;-64
2023/07/24 00:56:53;;;;;;;2.05;1.50;;;;;;;20.50;78.32;98673.16;338003;28;18157;-64
2023/07/24 00:57:06;;;;;;;2.08;1.50;;;;;;;20.52;78.40;98680.00;341139;28;5426;-64
2023/07/24 00:57:18;;;;;;;2.67;1.30;;;;;;;20.51;78.45;98670.38;341428;28;11770;-64
2023/07/24 00:57:30;;;;;;;2.35;1.30;;;;;;;20.52;78.35;98679.13;337661;28;18171;-64
2023/07/24 00:57:43;;;;;;;2.35;1.23;;;;;;;20.49;78.73;98674.16;341661;28;5641;-64
2023/07/24 00:57:57;;;;;;;1.83;1.30;;;;;;;20.46;79.32;98680.50;339299;28;18085;-64
2023/07/24 00:58:11;;;;;;;1.75;1.33;;;;;;;20.47;79.05;98678.72;338962;28;18040;-64
2023/07/24 00:58:23;;;;;;;2.17;1.40;;;;;;;20.46;78.99;98672.59;339308;28;13517;-64
2023/07/24 00:58:37;;;;;;;2.70;1.33;;;;;;;20.47;78.62;98676.91;340802;28;4796;-64
2023/07/24 00:58:49;;;;;;;2.40;1.10;;;;;;;20.48;78.36;98672.47;339160;28;17863;-65